Time;durP1;ratioP1;P1;durP2;ratioP2;P2;SDS_P1;SDS_P2;PMS_P1;PMS_P2;Temp;Humidity;BMP_temperature;BMP_pressure;BME280_temperature;BME280_humidity;BME280_pressure;Samples;Min_cycle;Max_cycle;Signal;HPM_P1;HPM_P2
2022/10/26 00:02:00;;;;;;;1.13;0.70;;;24.80;55.70;;;;;;5051408;28;20192;-78
2022/10/26 00:04:27;;;;;;;1.33;0.50;;;24.80;55.50;;;;;;5033304;28;20215;-75
2022/10/26 00:06:54;;;;;;;2.00;0.50;;;25.00;54.80;;;;;;5042735;28;20598;-78
2022/10/26 00:09:22;;;;;;;2.43;0.70;;;25.00;54.50;;;;;;5053014;28;20164;-79
2022/10/26 00:11:49;;;;;;;1.10;0.50;;;24.80;55.00;;;;;;5053353;28;20207;-72
2022/10/26 00:14:16;;;;;;;1.17;0.50;;;24.80;55.50;;;;;;5052269;28;20536;-75
2022/10/26 00:16:44;;;;;;;0.80;0.50;;;24.80;55.30;;;;;;5049765;28;20179;-73
2022/10/26 00:19:11;;;;;;;1.13;0.50;;;24.70;55.70;;;;;;5050206;28;20676;-78
2022/10/26 00:21:38;;;;;;;2.90;0.60;;;24.80;55.80;;;;;;5045641;28;20200;-75
2022/10/26 00:24:06;;;;;;;2.10;0.40;;;24.90;56.40;;;;;;5065053;28;20171;-71
2022/10/26 00:26:33;;;;;;;1.33;0.50;;;24.90;55.70;;;;;;5057320;28;20219;-72
2022/10/26 00:29:00;;;;;;;1.53;0.70;;;25.10;54.80;;;;;;5049884;28;20256;-71
2022/10/26 00:31:28;;;;;;;2.97;0.57;;;25.00;55.20;;;;;;5057850;28;20280;-72
2022/10/26 00:33:56;;;;;;;1.13;0.70;;;25.20;54.60;;;;;;5056614;28;20230;-73
2022/10/26 00:36:25;;;;;;;3.20;0.60;;;25.50;54.20;;;;;;5056744;28;20223;-72
2022/10/26 00:38:54;;;;;;;1.60;0.63;;;26.20;52.30;;;;;;5064274;28;20183;-73
2022/10/26 00:41:28;;;;;;;2.10;0.50;;;26.40;51.20;;;;;;5050592;28;20190;-73
2022/10/26 00:43:57;;;;;;;0.67;0.50;;;26.70;50.80;;;;;;5061127;28;20225;-74
2022/10/26 00:46:35;;;;;;;2.47;0.40;;;26.30;51.00;;;;;;5053435;28;20584;-72
2022/10/26 00:49:09;;;;;;;0.77;0.50;;;26.00;51.50;;;;;;5052238;28;20229;-72
2022/10/26 00:51:52;;;;;;;0.70;0.50;;;25.80;52.70;;;;;;5052785;28;20245;-72
2022/10/26 00:54:21;;;;;;;1.13;0.77;;;25.70;52.30;;;;;;5047848;28;20178;-72
2022/10/26 00:56:51;;;;;;;0.80;0.60;;;25.70;51.60;;;;;;5052887;28;20636;-72
2022/10/26 00:59:21;;;;;;;0.70;0.50;;;25.80;51.80;;;;;;5052255;28;20176;-72
2022/10/26 01:01:50;;;;;;;0.63;0.40;;;25.90;50.30;;;;;;5052379;28;20330;-75
2022/10/26 01:04:18;;;;;;;0.70;0.40;;;25.80;50.00;;;;;;5052692;28;20168;-72
2022/10/26 01:06:46;;;;;;;0.40;0.40;;;25.90;48.90;;;;;;5051912;28;20208;-71
2022/10/26 01:09:13;;;;;;;1.23;0.40;;;26.10;48.30;;;;;;5052135;28;20182;-72
2022/10/26 01:11:41;;;;;;;0.40;0.40;;;27.00;47.20;;;;;;5052130;28;20187;-72
2022/10/26 01:14:10;;;;;;;0.70;0.50;;;27.00;46.80;;;;;;5052025;28;20187;-73
2022/10/26 01:16:44;;;;;;;1.43;0.40;;;27.30;46.30;;;;;;5045152;28;20270;-71
2022/10/26 01:19:44;;;;;;;1.03;0.40;;;27.40;44.60;;;;;;5059415;28;20250;-73
2022/10/26 01:22:25;;;;;;;0.30;0.30;;;27.30;44.80;;;;;;5054115;28;20263;-71
2022/10/26 01:25:21;;;;;;;0.87;0.50;;;26.90;45.50;;;;;;5053707;28;20183;-71
2022/10/26 01:27:53;;;;;;;0.70;0.50;;;27.00;46.20;;;;;;5054304;28;20294;-71
2022/10/26 01:30:35;;;;;;;0.40;0.30;;;27.40;44.70;;;;;;5059341;28;20184;-70
2022/10/26 01:33:28;;;;;;;0.77;0.53;;;27.30;44.80;;;;;;5055847;28;20508;-70
2022/10/26 01:36:07;;;;;;;0.40;0.40;;;26.90;45.40;;;;;;5062736;28;20612;-72
2022/10/26 01:38:43;;;;;;;2.60;0.57;;;26.70;44.90;;;;;;5061703;28;20188;-70
2022/10/26 01:41:33;;;;;;;0.30;0.30;;;27.30;44.30;;;;;;5056835;28;20179;-70
2022/10/26 01:44:10;;;;;;;0.47;0.40;;;27.90;42.80;;;;;;5054175;28;20318;-71
2022/10/26 01:46:42;;;;;;;0.67;0.50;;;28.10;41.20;;;;;;5064746;28;20249;-70
2022/10/26 01:49:13;;;;;;;2.40;0.40;;;28.60;40.80;;;;;;5068908;28;20172;-69
2022/10/26 01:51:43;;;;;;;1.20;0.60;;;28.50;39.10;;;;;;5060694;28;20211;-71
2022/10/26 01:54:11;;;;;;;0.57;0.40;;;28.80;38.40;;;;;;5071123;28;20183;-70
2022/10/26 01:56:41;;;;;;;3.70;0.30;;;28.30;39.60;;;;;;5070321;28;20191;-72
2022/10/26 01:59:22;;;;;;;0.50;0.27;;;28.20;38.60;;;;;;5053646;28;20184;-68
2022/10/26 02:02:01;;;;;;;0.20;0.20;;;27.40;39.80;;;;;;5063419;28;20182;-73
2022/10/26 02:04:52;;;;;;;3.10;0.30;;;27.10;39.60;;;;;;5054889;28;20190;-73
2022/10/26 02:07:31;;;;;;;1.20;0.57;;;27.20;39.30;;;;;;5059968;28;20295;-70
2022/10/26 02:10:22;;;;;;;2.20;0.50;;;27.30;39.60;;;;;;5062538;28;20190;-71
2022/10/26 02:12:56;;;;;;;1.67;0.50;;;27.40;38.90;;;;;;5060078;28;20253;-72
2022/10/26 02:16:13;;;;;;;0.50;0.50;;;27.40;39.00;;;;;;5065021;28;20180;-71
2022/10/26 02:19:01;;;;;;;0.40;0.40;;;27.60;38.20;;;;;;5016289;28;20206;-72
2022/10/26 02:21:41;;;;;;;3.20;0.70;;;27.90;38.40;;;;;;5057441;28;20210;-71
2022/10/26 02:24:12;;;;;;;0.40;0.40;;;27.80;37.30;;;;;;5055270;28;20637;-72
2022/10/26 02:26:43;;;;;;;0.40;0.30;;;28.10;36.50;;;;;;5054351;28;20283;-73
2022/10/26 02:29:15;;;;;;;1.03;0.57;;;28.20;36.50;;;;;;5054878;28;20222;-71
2022/10/26 02:31:46;;;;;;;1.30;0.30;;;28.40;35.90;;;;;;5056639;28;20596;-73
2022/10/26 02:34:18;;;;;;;3.83;0.57;;;28.90;35.50;;;;;;5053562;28;20569;-72
2022/10/26 02:36:49;;;;;;;0.40;0.40;;;29.10;35.70;;;;;;5060629;28;20175;-71
2022/10/26 02:39:18;;;;;;;0.90;0.40;;;28.80;36.60;;;;;;5066000;28;20603;-71
2022/10/26 02:41:47;;;;;;;0.50;0.40;;;28.90;36.10;;;;;;5065452;28;20179;-73
2022/10/26 02:44:27;;;;;;;0.83;0.40;;;28.90;36.90;;;;;;5053394;28;20262;-74
2022/10/26 02:46:56;;;;;;;0.37;0.37;;;29.00;37.30;;;;;;5058505;28;20316;-71
2022/10/26 02:49:24;;;;;;;0.37;0.37;;;29.00;36.30;;;;;;5061948;28;20180;-72
2022/10/26 02:52:17;;;;;;;1.50;0.40;;;28.80;35.70;;;;;;5065024;28;20836;-71
2022/10/26 02:55:00;;;;;;;0.50;0.30;;;28.60;35.50;;;;;;5050139;28;20199;-72
2022/10/26 02:57:39;;;;;;;1.17;0.40;;;29.40;34.60;;;;;;5053736;28;20558;-72
2022/10/26 03:00:16;;;;;;;1.77;0.43;;;29.30;34.60;;;;;;5054495;28;20641;-71
2022/10/26 03:02:45;;;;;;;2.20;0.70;;;29.30;35.50;;;;;;5059220;28;20180;-73
2022/10/26 03:05:35;;;;;;;1.70;0.50;;;29.20;34.80;;;;;;5056498;28;20278;-70
2022/10/26 03:08:03;;;;;;;0.30;0.30;;;28.80;34.70;;;;;;5062491;28;20222;-74
2022/10/26 03:10:33;;;;;;;0.57;0.33;;;28.60;35.20;;;;;;5060188;28;20184;-73
2022/10/26 03:13:00;;;;;;;0.57;0.40;;;28.40;35.10;;;;;;5036560;28;20179;-71
2022/10/26 03:15:27;;;;;;;0.40;0.30;;;28.80;35.40;;;;;;5054119;28;20202;-72
2022/10/26 03:17:54;;;;;;;4.67;0.47;;;29.20;34.50;;;;;;5057394;28;20195;-70
2022/10/26 03:20:22;;;;;;;2.37;0.47;;;29.80;34.00;;;;;;5063174;28;20203;-73
2022/10/26 03:22:49;;;;;;;3.07;0.60;;;30.10;31.80;;;;;;5059150;28;20187;-72
2022/10/26 03:25:16;;;;;;;3.40;0.53;;;30.20;32.00;;;;;;5051303;28;20646;-70
2022/10/26 03:27:44;;;;;;;0.57;0.50;;;30.00;32.50;;;;;;5054038;28;20226;-71
2022/10/26 03:30:12;;;;;;;0.40;0.40;;;30.40;31.80;;;;;;5034862;28;20185;-73
2022/10/26 03:32:39;;;;;;;0.43;0.40;;;30.80;30.90;;;;;;5054268;28;20270;-71
2022/10/26 03:35:06;;;;;;;1.03;0.57;;;30.50;31.40;;;;;;5054115;28;20715;-73
2022/10/26 03:37:34;;;;;;;3.10;0.73;;;30.60;31.50;;;;;;5054310;28;20168;-70
2022/10/26 03:40:01;;;;;;;0.30;0.30;;;30.30;31.50;;;;;;5053548;28;20530;-72
2022/10/26 03:42:32;;;;;;;0.97;0.50;;;29.30;33.20;;;;;;5053122;28;20180;-71
2022/10/26 03:45:00;;;;;;;0.57;0.40;;;29.70;33.50;;;;;;5053856;28;20273;-72
2022/10/26 03:47:27;;;;;;;0.37;0.37;;;30.20;32.40;;;;;;5053367;28;20247;-71
2022/10/26 03:49:54;;;;;;;0.40;0.40;;;29.80;32.70;;;;;;5053722;28;20630;-73
2022/10/26 03:52:23;;;;;;;0.40;0.40;;;29.80;32.30;;;;;;5053432;28;20196;-71
2022/10/26 03:54:51;;;;;;;0.40;0.40;;;30.30;31.40;;;;;;5053138;28;20534;-70
2022/10/26 03:57:19;;;;;;;0.30;0.30;;;30.30;31.40;;;;;;5050428;28;20179;-71
2022/10/26 03:59:46;;;;;;;0.30;0.30;;;30.80;30.80;;;;;;5052867;28;20266;-73
2022/10/26 04:02:14;;;;;;;0.80;0.40;;;30.80;30.80;;;;;;5034798;28;20187;-70
2022/10/26 04:04:41;;;;;;;1.10;0.30;;;31.00;30.30;;;;;;5053736;28;20180;-71
2022/10/26 04:07:08;;;;;;;0.57;0.40;;;30.90;30.50;;;;;;5046577;28;20205;-71
2022/10/26 04:09:36;;;;;;;1.17;0.40;;;30.70;30.60;;;;;;5050792;28;20210;-70
2022/10/26 04:12:03;;;;;;;0.40;0.40;;;30.60;30.90;;;;;;5045883;28;20225;-69
2022/10/26 04:14:30;;;;;;;0.87;0.30;;;29.50;32.30;;;;;;5053668;28;20180;-70
2022/10/26 04:16:58;;;;;;;0.93;0.50;;;28.80;33.40;;;;;;5055423;28;20537;-70
2022/10/26 04:19:25;;;;;;;2.10;0.40;;;29.30;33.50;;;;;;5056034;28;20179;-74
2022/10/26 04:21:52;;;;;;;1.83;0.30;;;29.20;33.30;;;;;;5051233;28;20226;-72
2022/10/26 04:24:20;;;;;;;0.83;0.40;;;29.80;32.40;;;;;;5038797;28;20210;-73
2022/10/26 04:26:47;;;;;;;1.42;0.40;;;30.90;31.40;;;;;;5059186;28;20219;-70
2022/10/26 04:29:15;;;;;;;0.32;0.30;;;31.50;30.90;;;;;;5054831;28;20179;-70
2022/10/26 04:31:42;;;;;;;0.93;0.50;;;31.60;30.90;;;;;;5049583;28;20180;-69
2022/10/26 04:34:09;;;;;;;0.50;0.35;;;31.20;29.80;;;;;;5055184;28;20301;-70
2022/10/26 04:36:37;;;;;;;0.35;0.28;;;31.30;30.00;;;;;;5051553;28;20257;-71
2022/10/26 04:39:04;;;;;;;0.45;0.30;;;31.10;30.70;;;;;;5057919;28;20195;-70
2022/10/26 04:41:31;;;;;;;0.37;0.30;;;31.10;31.20;;;;;;5046016;28;20175;-71
2022/10/26 04:43:59;;;;;;;0.32;0.32;;;31.80;30.60;;;;;;5058135;28;20307;-69
2022/10/26 04:46:26;;;;;;;1.00;0.40;;;31.70;29.70;;;;;;5059033;28;20204;-70
2022/10/26 04:48:56;;;;;;;0.40;0.40;;;31.60;29.90;;;;;;5055024;28;20550;-70
2022/10/26 04:51:24;;;;;;;0.57;0.35;;;31.90;29.40;;;;;;5057423;28;20191;-69
2022/10/26 04:53:54;;;;;;;0.30;0.30;;;31.80;29.30;;;;;;5058756;28;20183;-72
2022/10/26 04:56:21;;;;;;;1.00;0.30;;;31.80;28.70;;;;;;5052918;28;20183;-71
2022/10/26 04:58:48;;;;;;;2.10;0.40;;;32.00;29.10;;;;;;5057619;28;20176;-71
2022/10/26 05:01:16;;;;;;;0.38;0.38;;;32.00;29.20;;;;;;5067916;28;20262;-70
2022/10/26 05:03:43;;;;;;;1.05;0.50;;;32.20;29.30;;;;;;5053774;28;20175;-73
2022/10/26 05:06:10;;;;;;;0.45;0.40;;;32.80;28.40;;;;;;5046751;28;20215;-72
2022/10/26 05:08:38;;;;;;;0.35;0.30;;;32.50;28.80;;;;;;5034220;28;20179;-70
2022/10/26 05:11:05;;;;;;;0.40;0.40;;;32.60;29.30;;;;;;5056338;28;20187;-70
2022/10/26 05:13:33;;;;;;;1.60;0.65;;;32.80;28.90;;;;;;5062141;28;20183;-70
2022/10/26 05:16:00;;;;;;;0.80;0.40;;;33.20;28.20;;;;;;5052288;28;20194;-70
2022/10/26 05:18:27;;;;;;;1.08;0.40;;;32.50;29.00;;;;;;5054383;28;20182;-71
2022/10/26 05:20:55;;;;;;;0.88;0.40;;;33.30;28.90;;;;;;5054259;28;20592;-72
2022/10/26 05:23:23;;;;;;;2.25;0.50;;;33.60;28.10;;;;;;5062301;28;20190;-72
2022/10/26 05:25:50;;;;;;;1.00;0.38;;;33.30;28.40;;;;;;5060034;28;20183;-72
2022/10/26 05:28:18;;;;;;;2.08;0.30;;;33.70;27.60;;;;;;5047127;28;20215;-72
2022/10/26 05:30:46;;;;;;;0.52;0.35;;;33.90;28.10;;;;;;5047824;28;20634;-70
2022/10/26 05:33:14;;;;;;;3.30;0.57;;;34.80;27.00;;;;;;5043082;28;20190;-73
2022/10/26 05:35:41;;;;;;;0.68;0.40;;;34.00;27.80;;;;;;5043821;28;20187;-71
2022/10/26 05:38:14;;;;;;;2.60;0.65;;;32.70;28.70;;;;;;5043733;28;20250;-70
2022/10/26 05:40:53;;;;;;;0.98;0.50;;;31.40;31.60;;;;;;5040603;28;20191;-71
2022/10/26 05:43:23;;;;;;;1.48;0.50;;;31.40;31.60;;;;;;5047014;28;20254;-70
2022/10/26 05:45:51;;;;;;;0.57;0.35;;;31.00;31.50;;;;;;5041842;28;20202;-69
2022/10/26 05:48:19;;;;;;;0.73;0.50;;;31.50;31.50;;;;;;5044684;28;20495;-70
2022/10/26 05:50:46;;;;;;;0.95;0.43;;;31.10;31.90;;;;;;5049416;28;20186;-70
2022/10/26 05:53:14;;;;;;;0.83;0.40;;;31.10;30.60;;;;;;5040857;28;20191;-70
2022/10/26 05:55:42;;;;;;;0.40;0.30;;;31.00;31.20;;;;;;5045980;28;20267;-69
2022/10/26 05:58:14;;;;;;;0.80;0.50;;;31.30;30.70;;;;;;5038140;28;20216;-69
2022/10/26 06:01:06;;;;;;;3.38;0.38;;;30.60;32.20;;;;;;5035674;28;20176;-69
2022/10/26 06:04:22;;;;;;;2.40;0.50;;;29.80;33.40;;;;;;5046069;28;20192;-70
2022/10/26 06:06:54;;;;;;;0.53;0.40;;;29.80;33.70;;;;;;5028293;28;20231;-71
2022/10/26 06:09:22;;;;;;;0.37;0.37;;;29.30;33.40;;;;;;5050335;28;20518;-72
2022/10/26 06:11:50;;;;;;;0.60;0.50;;;29.00;33.70;;;;;;5046783;28;20191;-72
2022/10/26 06:14:18;;;;;;;1.23;0.50;;;28.80;34.50;;;;;;5048996;28;20241;-70
2022/10/26 06:17:22;;;;;;;1.50;0.40;;;29.00;34.20;;;;;;5050381;28;20271;-70
2022/10/26 06:20:21;;;;;;;0.90;0.50;;;30.70;31.50;;;;;;5051044;28;20589;-71
2022/10/26 06:22:54;;;;;;;0.80;0.50;;;31.60;30.50;;;;;;5050483;28;20180;-71
2022/10/26 06:25:49;;;;;;;0.45;0.32;;;31.90;30.20;;;;;;5049771;28;20181;-70
2022/10/26 06:28:26;;;;;;;0.40;0.40;;;31.90;30.10;;;;;;5048712;28;20188;-71
2022/10/26 06:30:53;;;;;;;0.40;0.35;;;30.30;32.70;;;;;;5049557;28;20245;-71
2022/10/26 06:33:21;;;;;;;0.50;0.47;;;30.70;31.70;;;;;;5053031;28;20226;-74
2022/10/26 06:36:08;;;;;;;0.33;0.30;;;31.30;31.10;;;;;;5054678;28;20179;-75
2022/10/26 06:38:39;;;;;;;1.27;0.57;;;32.10;30.10;;;;;;5054366;28;20647;-72
2022/10/26 06:41:06;;;;;;;0.50;0.40;;;32.30;30.10;;;;;;5053733;28;20203;-73
2022/10/26 06:43:35;;;;;;;0.77;0.40;;;31.30;31.20;;;;;;5051524;28;20607;-70
2022/10/26 06:46:06;;;;;;;0.53;0.40;;;30.70;32.80;;;;;;5050617;28;20258;-69
2022/10/26 06:48:58;;;;;;;0.60;0.50;;;30.10;33.20;;;;;;5053601;28;20184;-71
2022/10/26 06:51:27;;;;;;;0.70;0.60;;;29.30;35.00;;;;;;5037336;28;20283;-71
2022/10/26 06:54:02;;;;;;;2.67;0.50;;;28.80;35.60;;;;;;5053595;28;20184;-71
2022/10/26 06:56:30;;;;;;;0.40;0.40;;;28.40;36.40;;;;;;5051079;28;20191;-71
2022/10/26 06:59:12;;;;;;;0.60;0.37;;;28.50;36.30;;;;;;5052127;28;20184;-71
2022/10/26 07:01:39;;;;;;;2.30;0.50;;;28.40;36.60;;;;;;5052631;28;20207;-69
2022/10/26 07:04:06;;;;;;;1.17;0.40;;;28.20;36.80;;;;;;5052353;28;20171;-69
2022/10/26 07:06:34;;;;;;;0.53;0.40;;;28.10;37.60;;;;;;5054512;28;20568;-72
2022/10/26 07:09:01;;;;;;;0.60;0.43;;;27.90;37.50;;;;;;5053463;28;20191;-72
2022/10/26 07:11:29;;;;;;;2.00;0.57;;;27.80;36.90;;;;;;5054082;28;20187;-70
2022/10/26 07:13:56;;;;;;;1.17;0.40;;;27.80;37.00;;;;;;5054426;28;20561;-69
2022/10/26 07:16:23;;;;;;;0.73;0.60;;;27.60;36.90;;;;;;5054435;28;20468;-72
2022/10/26 07:18:51;;;;;;;2.83;0.40;;;27.40;37.10;;;;;;5054644;28;20270;-71
2022/10/26 07:21:18;;;;;;;1.23;0.53;;;27.30;37.40;;;;;;5054261;28;20654;-71
2022/10/26 07:23:45;;;;;;;2.40;0.60;;;27.20;37.70;;;;;;5053549;28;20230;-71
2022/10/26 07:26:13;;;;;;;1.20;0.70;;;27.10;38.10;;;;;;5052475;28;20217;-70
2022/10/26 07:28:40;;;;;;;2.23;0.43;;;26.90;38.40;;;;;;5050545;28;20290;-71
2022/10/26 07:31:07;;;;;;;1.03;0.50;;;26.90;38.70;;;;;;5053917;28;20582;-69
2022/10/26 07:33:35;;;;;;;1.00;0.70;;;26.80;39.40;;;;;;5053702;28;20650;-70
2022/10/26 07:36:02;;;;;;;0.73;0.57;;;26.80;39.40;;;;;;5053766;28;20540;-72
2022/10/26 07:38:29;;;;;;;1.83;0.57;;;26.60;39.80;;;;;;5051994;28;20190;-71
2022/10/26 07:40:57;;;;;;;2.97;0.97;;;26.60;40.30;;;;;;5053864;28;20179;-71
2022/10/26 07:43:24;;;;;;;2.20;0.70;;;26.50;40.60;;;;;;5037782;28;20748;-71
2022/10/26 07:45:51;;;;;;;2.00;0.60;;;26.40;40.40;;;;;;5046536;28;20664;-72
2022/10/26 07:48:19;;;;;;;1.53;0.60;;;26.30;40.40;;;;;;5054191;28;20211;-70
2022/10/26 07:50:46;;;;;;;3.87;0.63;;;26.30;40.50;;;;;;5052242;28;20225;-72
2022/10/26 07:53:14;;;;;;;0.50;0.50;;;26.30;41.00;;;;;;5053268;28;20267;-69
2022/10/26 07:55:41;;;;;;;1.83;0.50;;;26.30;40.50;;;;;;5047147;28;20204;-71
2022/10/26 07:58:09;;;;;;;1.23;0.60;;;26.30;40.80;;;;;;5048263;28;20278;-70
2022/10/26 08:00:36;;;;;;;0.60;0.60;;;26.30;41.30;;;;;;5052017;28;20176;-73
2022/10/26 08:03:03;;;;;;;0.70;0.53;;;26.20;41.20;;;;;;5053022;28;20172;-69
2022/10/26 08:05:31;;;;;;;1.57;0.60;;;26.20;41.70;;;;;;5052780;28;20168;-70
2022/10/26 08:07:58;;;;;;;1.10;0.63;;;26.10;41.40;;;;;;5047241;28;20208;-69
2022/10/26 08:10:25;;;;;;;1.47;0.73;;;26.10;41.90;;;;;;5051972;28;20172;-71
2022/10/26 08:12:53;;;;;;;4.43;0.70;;;26.10;41.50;;;;;;5045380;28;20186;-70
2022/10/26 08:15:21;;;;;;;1.67;0.63;;;26.10;42.00;;;;;;5052511;28;20229;-69
2022/10/26 08:17:48;;;;;;;3.17;0.90;;;26.00;41.90;;;;;;5052535;28;20183;-69
2022/10/26 08:20:15;;;;;;;0.90;0.63;;;26.00;42.20;;;;;;5052332;28;20172;-69
2022/10/26 08:22:43;;;;;;;0.70;0.60;;;25.90;42.40;;;;;;5050567;28;20183;-73
2022/10/26 08:25:10;;;;;;;1.17;0.80;;;25.90;42.70;;;;;;5051718;28;20180;-69
2022/10/26 08:27:37;;;;;;;0.80;0.53;;;25.80;42.90;;;;;;5049939;28;20604;-71
2022/10/26 08:30:05;;;;;;;2.40;0.60;;;25.80;43.20;;;;;;5034502;28;20180;-71
2022/10/26 08:32:32;;;;;;;2.10;0.73;;;25.80;42.80;;;;;;5052382;28;20195;-71
2022/10/26 08:35:00;;;;;;;0.90;0.70;;;25.80;42.80;;;;;;5053203;28;20553;-70
2022/10/26 08:37:27;;;;;;;0.70;0.70;;;25.80;42.90;;;;;;5052494;28;20180;-70
2022/10/26 08:39:55;;;;;;;1.17;0.60;;;25.80;43.10;;;;;;5035068;28;20171;-69
2022/10/26 08:42:31;;;;;;;1.27;0.70;;;25.80;43.40;;;;;;5051414;28;20180;-70
2022/10/26 08:45:12;;;;;;;1.23;0.50;;;25.70;43.40;;;;;;5038886;28;20577;-71
2022/10/26 08:47:49;;;;;;;1.77;0.87;;;25.70;43.70;;;;;;5051833;28;20216;-72
2022/10/26 08:50:37;;;;;;;1.20;0.70;;;25.60;43.80;;;;;;5040488;28;20591;-70
2022/10/26 08:53:12;;;;;;;7.13;0.93;;;25.60;43.60;;;;;;5052415;28;20286;-69
2022/10/26 08:55:50;;;;;;;2.93;1.40;;;25.50;43.80;;;;;;5052598;28;20198;-73
2022/10/26 08:58:25;;;;;;;1.00;0.80;;;25.50;43.30;;;;;;5051866;28;20649;-72
2022/10/26 09:00:53;;;;;;;0.57;0.57;;;25.50;43.30;;;;;;5051225;28;20650;-71
2022/10/26 09:03:21;;;;;;;0.80;0.70;;;25.40;43.50;;;;;;5052159;28;20180;-73
2022/10/26 09:06:19;;;;;;;1.07;0.60;;;25.40;43.80;;;;;;5052561;28;20172;-74
2022/10/26 09:08:49;;;;;;;1.73;0.70;;;25.40;43.60;;;;;;5052439;28;20189;-70
2022/10/26 09:11:51;;;;;;;0.97;0.60;;;25.30;43.70;;;;;;5045850;28;20263;-70
2022/10/26 09:14:41;;;;;;;1.77;1.00;;;25.30;44.10;;;;;;5007886;28;20274;-71
2022/10/26 09:17:14;;;;;;;1.57;0.80;;;25.30;44.30;;;;;;5045048;28;20230;-70
2022/10/26 09:20:05;;;;;;;1.80;0.70;;;25.30;44.40;;;;;;5047699;28;20181;-71
2022/10/26 09:22:45;;;;;;;1.67;0.70;;;25.30;44.30;;;;;;5051829;28;20672;-73
2022/10/26 09:25:21;;;;;;;4.40;0.80;;;25.30;44.20;;;;;;5052172;28;20186;-71
2022/10/26 09:28:01;;;;;;;2.77;0.70;;;25.20;44.70;;;;;;5051342;28;20215;-70
2022/10/26 09:30:29;;;;;;;1.70;0.60;;;25.20;44.50;;;;;;5052107;28;20525;-71
2022/10/26 09:33:03;;;;;;;0.77;0.63;;;25.20;44.50;;;;;;5050341;28;20591;-71
2022/10/26 09:35:51;;;;;;;1.63;0.70;;;25.20;44.70;;;;;;5052207;28;20199;-70
2022/10/26 09:38:39;;;;;;;1.57;0.57;;;25.20;45.00;;;;;;5050896;28;20176;-69
2022/10/26 09:41:15;;;;;;;0.97;0.60;;;25.10;44.60;;;;;;5051086;28;20176;-71
2022/10/26 09:44:05;;;;;;;2.50;0.70;;;25.20;44.50;;;;;;5039565;28;20246;-71
2022/10/26 09:46:43;;;;;;;2.50;0.80;;;25.10;44.80;;;;;;5051750;28;20246;-72
2022/10/26 09:49:14;;;;;;;0.90;0.70;;;25.10;44.80;;;;;;5052143;28;20254;-72
2022/10/26 09:51:45;;;;;;;1.60;0.50;;;25.10;44.60;;;;;;5047371;28;20551;-70
2022/10/26 09:54:18;;;;;;;2.30;0.53;;;25.20;44.60;;;;;;5026426;28;20184;-71
2022/10/26 09:56:51;;;;;;;1.20;0.60;;;25.10;44.70;;;;;;5048546;28;20223;-70
2022/10/26 09:59:21;;;;;;;1.47;0.77;;;25.00;44.60;;;;;;5044248;28;20523;-70
2022/10/26 10:01:49;;;;;;;0.83;0.60;;;25.00;44.50;;;;;;5051689;28;20191;-69
2022/10/26 10:04:16;;;;;;;1.17;0.60;;;25.10;44.10;;;;;;5055035;28;20650;-72
2022/10/26 10:06:49;;;;;;;1.50;0.70;;;25.00;43.40;;;;;;5055217;28;20219;-70
2022/10/26 10:09:20;;;;;;;1.23;0.70;;;25.00;43.90;;;;;;5051174;28;20637;-69
2022/10/26 10:11:55;;;;;;;0.67;0.60;;;24.90;44.30;;;;;;5046202;28;20187;-70
2022/10/26 10:14:37;;;;;;;1.47;0.60;;;24.90;43.70;;;;;;5051578;28;20642;-70
2022/10/26 10:17:15;;;;;;;0.50;0.50;;;24.90;43.10;;;;;;5055500;28;20191;-71
2022/10/26 10:19:43;;;;;;;1.47;0.50;;;24.90;42.50;;;;;;5037567;28;20508;-70
2022/10/26 10:22:22;;;;;;;0.50;0.40;;;24.80;42.40;;;;;;5030359;28;20275;-70
2022/10/26 10:25:03;;;;;;;7.60;0.70;;;24.90;42.00;;;;;;5044523;28;20195;-71
2022/10/26 10:27:32;;;;;;;0.93;0.60;;;24.80;42.20;;;;;;5032341;28;20306;-70
2022/10/26 10:30:20;;;;;;;0.50;0.50;;;24.80;42.30;;;;;;5045189;28;20196;-70
2022/10/26 10:33:11;;;;;;;0.70;0.50;;;24.80;42.60;;;;;;5048049;28;20674;-69
2022/10/26 10:35:47;;;;;;;0.90;0.60;;;24.70;43.10;;;;;;5053756;28;20172;-70
2022/10/26 10:38:20;;;;;;;0.63;0.53;;;24.60;43.20;;;;;;5055156;28;20184;-69
2022/10/26 10:40:53;;;;;;;1.67;0.60;;;24.60;43.50;;;;;;5054647;28;20646;-70
2022/10/26 10:43:21;;;;;;;1.23;0.53;;;24.50;43.70;;;;;;5053561;28;20224;-69
2022/10/26 10:45:51;;;;;;;1.13;0.50;;;24.50;43.70;;;;;;5055220;28;20172;-69
2022/10/26 10:48:25;;;;;;;0.60;0.60;;;24.50;44.00;;;;;;5054876;28;20653;-69
2022/10/26 10:51:02;;;;;;;1.90;0.60;;;24.30;44.20;;;;;;5042321;28;20184;-69
2022/10/26 10:53:44;;;;;;;1.40;0.60;;;24.30;44.70;;;;;;5054623;28;20188;-72
2022/10/26 10:56:29;;;;;;;0.57;0.50;;;24.20;44.50;;;;;;5054705;28;20572;-71
2022/10/26 10:59:15;;;;;;;0.80;0.50;;;24.20;44.70;;;;;;5054996;28;20168;-69
2022/10/26 11:02:29;;;;;;;0.93;0.60;;;24.10;45.20;;;;;;5055085;28;20183;-71
2022/10/26 11:05:30;;;;;;;0.60;0.50;;;24.10;45.20;;;;;;5049745;28;20184;-70
2022/10/26 11:08:20;;;;;;;1.23;0.80;;;24.00;45.50;;;;;;5041831;28;20358;-71
2022/10/26 11:11:04;;;;;;;1.00;0.60;;;23.90;45.60;;;;;;5054356;28;20176;-71
2022/10/26 11:13:52;;;;;;;0.83;0.67;;;23.80;46.00;;;;;;5054974;28;20183;-73
2022/10/26 11:16:34;;;;;;;1.40;0.70;;;23.80;46.20;;;;;;5054698;28;20626;-72
2022/10/26 11:19:06;;;;;;;0.70;0.60;;;23.70;46.70;;;;;;5053466;28;20233;-72
2022/10/26 11:21:39;;;;;;;1.30;0.80;;;23.60;46.90;;;;;;5054569;28;20176;-73
2022/10/26 11:24:15;;;;;;;1.60;0.70;;;23.50;47.00;;;;;;5043099;28;20613;-73
2022/10/26 11:27:17;;;;;;;0.87;0.60;;;23.50;47.40;;;;;;5041585;28;20210;-71
2022/10/26 11:29:56;;;;;;;4.53;0.90;;;23.50;47.30;;;;;;5047938;28;20183;-71
2022/10/26 11:32:46;;;;;;;1.57;1.00;;;23.40;47.60;;;;;;5054276;28;20229;-70
2022/10/26 11:35:21;;;;;;;0.70;0.60;;;23.30;47.80;;;;;;5054085;28;20175;-71
2022/10/26 11:37:56;;;;;;;1.53;0.80;;;23.30;48.30;;;;;;5053295;28;20183;-70
2022/10/26 11:40:44;;;;;;;0.70;0.70;;;23.20;48.10;;;;;;5052875;28;20183;-70
2022/10/26 11:43:14;;;;;;;1.17;0.80;;;23.20;48.50;;;;;;5053316;28;20243;-70
2022/10/26 11:45:57;;;;;;;2.57;0.80;;;23.10;48.80;;;;;;5054020;28;20179;-71
2022/10/26 11:48:44;;;;;;;1.50;0.80;;;23.10;49.00;;;;;;5054139;28;20184;-70
2022/10/26 11:51:33;;;;;;;1.43;0.60;;;23.00;48.80;;;;;;5053426;28;20641;-69
2022/10/26 11:54:09;;;;;;;1.57;0.73;;;23.00;49.50;;;;;;5042298;28;20172;-70
2022/10/26 11:56:47;;;;;;;3.03;1.07;;;22.90;49.50;;;;;;5053636;28;20192;-68
2022/10/26 11:59:25;;;;;;;1.73;0.70;;;22.80;50.10;;;;;;5035838;28;20545;-70
2022/10/26 12:02:13;;;;;;;0.90;0.80;;;22.80;50.10;;;;;;5053839;28;20175;-70
2022/10/26 12:04:41;;;;;;;4.43;0.97;;;22.80;50.50;;;;;;5052367;28;20536;-70
2022/10/26 12:07:24;;;;;;;2.20;0.83;;;22.60;50.80;;;;;;5047426;28;20219;-73
2022/10/26 12:09:52;;;;;;;1.93;0.73;;;22.60;50.80;;;;;;5053913;28;20176;-70
2022/10/26 12:12:40;;;;;;;1.30;0.70;;;22.50;51.30;;;;;;5048645;28;20227;-72
2022/10/26 12:15:33;;;;;;;1.17;0.70;;;22.50;51.60;;;;;;5037241;28;20263;-69
2022/10/26 12:18:17;;;;;;;0.93;0.87;;;22.40;51.90;;;;;;5053346;28;20177;-70
2022/10/26 12:21:03;;;;;;;3.30;0.70;;;22.30;52.10;;;;;;5053051;28;20194;-69
2022/10/26 12:23:54;;;;;;;1.23;0.70;;;22.30;52.40;;;;;;5053201;28;20175;-68
2022/10/26 12:26:27;;;;;;;2.67;0.90;;;22.20;52.50;;;;;;5051317;28;20288;-68
2022/10/26 12:29:04;;;;;;;1.20;0.70;;;22.20;52.80;;;;;;5065539;28;20688;-69
2022/10/26 12:31:37;;;;;;;1.10;0.63;;;22.20;53.10;;;;;;5053020;28;20179;-68
2022/10/26 12:34:14;;;;;;;2.03;0.93;;;22.10;53.70;;;;;;5040004;28;20184;-68
2022/10/26 12:37:21;;;;;;;1.40;0.80;;;22.00;53.40;;;;;;5053454;28;20171;-68
2022/10/26 12:39:49;;;;;;;2.60;0.80;;;22.00;53.60;;;;;;5053329;28;20183;-69
2022/10/26 12:42:16;;;;;;;1.83;0.80;;;22.00;54.10;;;;;;5052829;28;20259;-68
2022/10/26 12:44:47;;;;;;;2.73;1.00;;;21.90;54.20;;;;;;5053214;28;20199;-69
2022/10/26 12:47:34;;;;;;;4.27;1.00;;;21.90;54.70;;;;;;5052588;28;20204;-69
2022/10/26 12:50:23;;;;;;;1.83;0.80;;;21.80;54.80;;;;;;5022394;28;20187;-73
2022/10/26 12:52:56;;;;;;;0.97;0.70;;;21.80;55.40;;;;;;5040371;28;20176;-67
2022/10/26 12:55:32;;;;;;;1.27;1.07;;;21.70;55.70;;;;;;5052753;28;20180;-70
2022/10/26 12:58:24;;;;;;;1.43;1.07;;;21.70;55.70;;;;;;5052400;28;20267;-69
2022/10/26 13:01:00;;;;;;;2.60;1.30;;;21.80;55.80;;;;;;5052738;28;20243;-69
2022/10/26 13:04:09;;;;;;;0.70;0.70;;;21.80;55.40;;;;;;5052402;28;20176;-72
2022/10/26 13:07:14;;;;;;;2.13;0.77;;;21.70;55.60;;;;;;5041977;28;20195;-70
2022/10/26 13:09:49;;;;;;;3.33;1.10;;;21.80;55.60;;;;;;5043188;28;20211;-74
2022/10/26 13:12:17;;;;;;;2.57;0.80;;;21.70;56.20;;;;;;5051942;28;20172;-68
2022/10/26 13:15:02;;;;;;;1.90;0.93;;;21.70;56.20;;;;;;5052763;28;20180;-70
2022/10/26 13:17:32;;;;;;;1.97;1.00;;;21.60;56.70;;;;;;5052321;28;20271;-70
2022/10/26 13:20:05;;;;;;;1.30;0.80;;;21.50;57.20;;;;;;5052585;28;20172;-69
2022/10/26 13:22:33;;;;;;;2.60;0.90;;;21.50;57.40;;;;;;5052722;28;20270;-68
2022/10/26 13:25:03;;;;;;;2.40;0.90;;;21.40;57.60;;;;;;5052541;28;20227;-68